createdAt,value
2018-05-03T00:00:57.984Z,88.69
2018-05-03T00:01:58.027Z,88.69
2018-05-03T00:02:57.984Z,89.22
2018-05-03T00:03:57.994Z,88.64
2018-05-03T00:04:58.005Z,88.84
2018-05-03T00:05:57.996Z,89.22
2018-05-03T00:06:57.998Z,88.93
2018-05-03T00:07:57.993Z,89.40
2018-05-03T00:08:57.996Z,89.98
2018-05-03T00:09:58.004Z,89.98
2018-05-03T00:10:58.031Z,89.98
2018-05-03T00:11:58.015Z,89.79
2018-05-03T00:12:58.029Z,89.69
2018-05-03T00:13:58.026Z,90.74
2018-05-03T00:14:58.012Z,89.79
2018-05-03T00:15:58.017Z,89.89
2018-05-03T00:16:58.009Z,90.17
2018-05-03T00:17:58.017Z,89.98
2018-05-03T00:18:58.024Z,90.74
2018-05-03T00:19:58.015Z,90.64
2018-05-03T00:20:58.032Z,91.07
2018-05-03T00:21:58.038Z,90.74
2018-05-03T00:22:58.026Z,90.93
2018-05-03T00:23:58.033Z,90.84
2018-05-03T00:24:58.022Z,91.31
2018-05-03T00:25:58.022Z,91.60
2018-05-03T00:26:58.059Z,91.69
2018-05-03T00:27:58.039Z,91.74
2018-05-03T00:28:58.049Z,91.98
2018-05-03T00:29:58.053Z,92.27
2018-05-03T00:30:58.037Z,91.98
2018-05-03T00:31:58.040Z,92.55
2018-05-03T00:32:58.058Z,92.84
2018-05-03T00:33:58.063Z,92.27
2018-05-03T00:34:58.055Z,91.98
2018-05-03T00:35:58.066Z,92.55
2018-05-03T00:36:58.046Z,92.55
2018-05-03T00:37:58.056Z,92.17
2018-05-03T00:38:58.046Z,92.36
2018-05-03T00:39:58.056Z,92.46
2018-05-03T00:40:58.069Z,91.88
2018-05-03T00:41:58.763Z,92.55
2018-05-03T00:42:58.062Z,92.74
2018-05-03T00:43:58.063Z,92.74
2018-05-03T00:44:58.064Z,92.74
2018-05-03T00:45:58.058Z,92.55
2018-05-03T00:46:58.059Z,92.65
2018-05-03T00:47:58.076Z,92.46
2018-05-03T00:48:58.091Z,92.36
2018-05-03T00:49:58.084Z,91.79
2018-05-03T00:50:58.071Z,91.79
2018-05-03T00:51:58.076Z,92.17
2018-05-03T00:52:58.077Z,91.69
2018-05-03T00:53:58.079Z,91.69
2018-05-03T00:54:58.148Z,92.36
2018-05-03T00:55:58.094Z,92.36
2018-05-03T00:56:58.096Z,91.50
2018-05-03T00:57:58.091Z,91.36
2018-05-03T00:58:58.110Z,91.60
2018-05-03T00:59:58.091Z,90.74
2018-05-03T01:00:58.090Z,90.55
2018-05-03T01:01:58.118Z,90.88
2018-05-03T01:02:58.101Z,91.13
2018-05-03T01:03:58.106Z,90.36
2018-05-03T01:04:58.099Z,90.64
2018-05-03T01:05:58.132Z,90.55
2018-05-03T01:06:58.096Z,90.88
2018-05-03T01:07:58.215Z,90.45
2018-05-03T01:08:58.108Z,90.55
2018-05-03T01:09:58.105Z,91.13
2018-05-03T01:10:58.111Z,91.46
2018-05-03T01:11:58.115Z,91.36
2018-05-03T01:12:58.109Z,91.36
2018-05-03T01:13:58.111Z,92.46
2018-05-03T01:14:58.147Z,92.17
2018-05-03T01:15:58.119Z,92.36
2018-05-03T01:16:58.120Z,92.17
2018-05-03T01:17:58.124Z,91.88
2018-05-03T01:18:58.143Z,91.88
2018-05-03T01:19:58.130Z,91.17
2018-05-03T01:20:58.148Z,91.22
2018-05-03T01:21:58.132Z,91.22
2018-05-03T01:22:58.138Z,91.03
2018-05-03T01:23:58.169Z,90.55
2018-05-03T01:24:58.129Z,90.98
2018-05-03T01:25:58.135Z,91.03
2018-05-03T01:26:58.142Z,89.60
2018-05-03T01:27:58.144Z,89.89
2018-05-03T01:28:58.136Z,89.60
2018-05-03T01:29:58.137Z,89.50
2018-05-03T01:30:58.168Z,89.98
2018-05-03T01:31:58.198Z,90.93
2018-05-03T01:32:58.140Z,90.64
2018-05-03T01:33:58.145Z,90.74
2018-05-03T01:34:58.163Z,90.93
2018-05-03T01:35:58.154Z,91.79
2018-05-03T01:36:58.150Z,93.03
2018-05-03T01:37:58.150Z,92.27
2018-05-03T01:38:58.241Z,92.84
2018-05-03T01:39:58.156Z,93.03
2018-05-03T01:40:58.154Z,92.93
2018-05-03T01:41:58.182Z,92.93
2018-05-03T01:42:58.176Z,92.46
2018-05-03T01:43:58.166Z,92.36
2018-05-03T01:44:58.160Z,92.27
2018-05-03T01:45:58.209Z,91.88
2018-05-03T01:46:58.184Z,92.27
2018-05-03T01:47:58.177Z,92.65
2018-05-03T01:48:58.171Z,92.93
2018-05-03T01:49:58.184Z,92.65
2018-05-03T01:50:58.172Z,93.22
2018-05-03T01:51:58.185Z,93.22
2018-05-03T01:52:58.180Z,92.84
2018-05-03T01:53:58.217Z,93.03
2018-05-03T01:54:58.183Z,93.12
2018-05-03T01:55:58.178Z,92.55
2018-05-03T01:56:58.204Z,92.74
2018-05-03T01:57:58.186Z,92.36
2018-05-03T01:58:58.208Z,92.65
2018-05-03T01:59:58.212Z,92.08
2018-05-03T02:00:58.793Z,92.36
2018-05-03T02:01:58.790Z,92.17
2018-05-03T02:02:58.198Z,92.27
2018-05-03T02:03:58.217Z,92.65
2018-05-03T02:04:58.203Z,92.84
2018-05-03T02:05:58.204Z,92.74
2018-05-03T02:06:58.203Z,92.55
2018-05-03T02:07:58.198Z,92.93
2018-05-03T02:08:58.201Z,92.74
2018-05-03T02:09:58.202Z,92.84
2018-05-03T02:10:58.202Z,92.55
2018-05-03T02:11:58.222Z,92.46
2018-05-03T02:12:58.221Z,92.36
2018-05-03T02:13:58.213Z,92.65
2018-05-03T02:14:58.212Z,92.84
2018-05-03T02:15:58.239Z,93.03
2018-05-03T02:16:58.213Z,93.12
2018-05-03T02:17:58.312Z,92.36
2018-05-03T02:18:58.281Z,92.74
2018-05-03T02:19:58.223Z,93.12
2018-05-03T02:20:58.249Z,93.03
2018-05-03T02:21:58.222Z,92.65
2018-05-03T02:22:58.239Z,93.12
2018-05-03T02:23:58.238Z,93.32
2018-05-03T02:24:58.235Z,93.03
2018-05-03T02:25:58.236Z,93.03
2018-05-03T02:26:58.259Z,93.32
2018-05-03T02:27:58.235Z,93.12
2018-05-03T02:28:58.235Z,93.03
2018-05-03T02:29:58.242Z,92.93
2018-05-03T02:30:58.237Z,93.32
2018-05-03T02:31:58.245Z,93.12
2018-05-03T02:32:58.246Z,92.93
2018-05-03T02:33:58.234Z,93.12
2018-05-03T02:34:58.238Z,93.41
2018-05-03T02:35:58.268Z,92.84
2018-05-03T02:36:58.255Z,93.51
2018-05-03T02:37:58.259Z,93.79
2018-05-03T02:38:58.252Z,94.08
2018-05-03T02:39:58.255Z,93.79
2018-05-03T02:40:58.254Z,94.74
2018-05-03T02:41:58.250Z,95.61
2018-05-03T02:42:58.257Z,94.17
2018-05-03T02:43:58.263Z,94.84
2018-05-03T02:44:58.307Z,94.17
2018-05-03T02:45:58.268Z,94.17
2018-05-03T02:46:58.270Z,94.93
2018-05-03T02:47:58.286Z,94.74
2018-05-03T02:48:58.258Z,95.03
2018-05-03T02:49:58.338Z,96.46
2018-05-03T02:50:58.322Z,96.46
2018-05-03T02:51:58.265Z,96.36
2018-05-03T02:52:58.307Z,96.36
2018-05-03T02:53:58.269Z,97.03
2018-05-03T02:54:58.278Z,97.22
2018-05-03T02:55:58.281Z,97.13
2018-05-03T02:56:58.306Z,97.32
2018-05-03T02:57:58.301Z,96.56
2018-05-03T02:58:58.281Z,96.75
2018-05-03T02:59:58.304Z,97.03
2018-05-03T03:00:58.312Z,96.84
2018-05-03T03:01:58.279Z,98.27
2018-05-03T03:02:58.294Z,97.51
2018-05-03T03:03:58.298Z,97.41
2018-05-03T03:04:58.290Z,97.85
2018-05-03T03:05:58.315Z,98.32
2018-05-03T03:06:58.296Z,98.61
2018-05-03T03:07:58.301Z,98.85
2018-05-03T03:08:58.332Z,99.18
2018-05-03T03:09:58.302Z,99.32
2018-05-03T03:10:58.304Z,99.66
2018-05-03T03:11:58.301Z,99.89
2018-05-03T03:12:58.304Z,99.56
2018-05-03T03:13:58.301Z,99.89
2018-05-03T03:14:58.306Z,99.99
2018-05-03T03:15:58.309Z,99.99
2018-05-03T03:16:58.326Z,99.99
2018-05-03T03:17:58.324Z,99.99
2018-05-03T03:18:58.319Z,99.99
2018-05-03T03:19:58.321Z,99.99
2018-05-03T03:20:58.312Z,99.99
2018-05-03T03:21:58.355Z,99.99
2018-05-03T03:22:58.343Z,99.99
2018-05-03T03:23:58.321Z,99.99
2018-05-03T03:24:58.324Z,99.99
2018-05-03T03:25:58.325Z,99.99
2018-05-03T03:26:58.324Z,99.99
2018-05-03T03:27:58.343Z,99.99
2018-05-03T03:28:58.326Z,99.99
2018-05-03T03:29:58.344Z,99.99
2018-05-03T03:30:58.369Z,99.99
2018-05-03T03:31:58.338Z,99.99
2018-05-03T03:32:58.340Z,99.75
2018-05-03T03:33:58.356Z,99.51
2018-05-03T03:34:58.355Z,99.66
2018-05-03T03:35:58.360Z,99.99
2018-05-03T03:36:58.341Z,99.99
2018-05-03T03:37:58.344Z,99.13
2018-05-03T03:38:58.349Z,98.90
2018-05-03T03:39:58.347Z,98.99
2018-05-03T03:40:58.345Z,99.27
2018-05-03T03:41:58.346Z,99.37
2018-05-03T03:42:58.358Z,99.37
2018-05-03T03:43:58.370Z,99.18
2018-05-03T03:44:58.356Z,99.08
2018-05-03T03:45:58.365Z,98.99
2018-05-03T03:46:58.357Z,98.03
2018-05-03T03:47:58.411Z,98.22
2018-05-03T03:48:58.368Z,98.22
2018-05-03T03:49:58.374Z,97.94
2018-05-03T03:50:58.365Z,97.66
2018-05-03T03:51:58.373Z,98.13
2018-05-03T03:52:58.364Z,98.70
2018-05-03T03:53:58.370Z,98.51
2018-05-03T03:54:58.412Z,98.32
2018-05-03T03:55:58.412Z,98.70
2018-05-03T03:56:58.389Z,98.51
2018-05-03T03:57:58.434Z,98.70
2018-05-03T03:58:58.459Z,98.90
2018-05-03T03:59:58.388Z,98.80
2018-05-03T04:00:58.379Z,98.51
2018-05-03T04:01:58.383Z,98.70
2018-05-03T04:02:58.384Z,98.51
2018-05-03T04:03:58.383Z,97.85
2018-05-03T04:04:58.391Z,98.13
2018-05-03T04:05:58.395Z,97.94
2018-05-03T04:06:58.398Z,97.75
2018-05-03T04:07:58.398Z,98.03
2018-05-03T04:08:58.413Z,97.66
2018-05-03T04:09:58.397Z,97.85
2018-05-03T04:10:58.443Z,98.22
2018-05-03T04:11:58.431Z,97.27
2018-05-03T04:12:58.448Z,97.27
2018-05-03T04:13:58.401Z,97.56
2018-05-03T04:14:58.404Z,97.46
2018-05-03T04:15:58.418Z,97.56
2018-05-03T04:16:58.421Z,96.98
2018-05-03T04:17:58.420Z,97.56
2018-05-03T04:18:58.409Z,96.98
2018-05-03T04:19:58.410Z,96.61
2018-05-03T04:20:58.412Z,97.22
2018-05-03T04:21:58.430Z,97.85
2018-05-03T04:22:58.415Z,98.32
2018-05-03T04:23:59.320Z,98.90
2018-05-03T04:24:58.420Z,99.18
2018-05-03T04:25:58.436Z,99.27
2018-05-03T04:26:58.453Z,99.95
2018-05-03T04:27:58.434Z,99.75
2018-05-03T04:28:58.429Z,99.80
2018-05-03T04:29:58.446Z,99.99
2018-05-03T04:30:58.460Z,99.85
2018-05-03T04:31:59.325Z,99.75
2018-05-03T04:32:58.434Z,99.99
2018-05-03T04:33:58.476Z,99.99
2018-05-03T04:34:58.435Z,99.66
2018-05-03T04:35:58.460Z,99.66
2018-05-03T04:36:59.329Z,99.99
2018-05-03T04:37:58.451Z,99.95
2018-05-03T04:38:58.446Z,99.99
2018-05-03T04:39:58.451Z,99.46
2018-05-03T04:40:58.448Z,98.99
2018-05-03T04:41:59.334Z,99.66
2018-05-03T04:42:58.486Z,99.75
2018-05-03T04:43:58.457Z,99.75
2018-05-03T04:44:58.451Z,99.27
2018-05-03T04:45:58.486Z,99.37
2018-05-03T04:46:58.518Z,98.99
2018-05-03T04:47:58.507Z,99.37
2018-05-03T04:48:58.459Z,98.70
2018-05-03T04:49:58.464Z,98.03
2018-05-03T04:50:58.481Z,98.13
2018-05-03T04:51:58.465Z,97.27
2018-05-03T04:52:58.495Z,97.85
2018-05-03T04:53:58.469Z,96.89
2018-05-03T04:54:59.331Z,96.80
2018-05-03T04:55:58.497Z,96.13
2018-05-03T04:56:58.480Z,96.03
2018-05-03T04:57:58.469Z,96.13
2018-05-03T04:58:58.473Z,94.98
2018-05-03T04:59:58.478Z,94.98
2018-05-03T05:00:58.473Z,95.08
2018-05-03T05:01:58.481Z,94.41
2018-05-03T05:02:58.485Z,94.41
2018-05-03T05:03:58.478Z,93.55
2018-05-03T05:04:58.489Z,93.17
2018-05-03T05:05:58.485Z,92.98
2018-05-03T05:06:58.487Z,92.88
2018-05-03T05:07:58.511Z,92.69
2018-05-03T05:08:58.515Z,92.69
2018-05-03T05:09:58.501Z,92.32
2018-05-03T05:10:58.490Z,91.60
2018-05-03T05:11:58.505Z,91.60
2018-05-03T05:12:58.494Z,91.02
2018-05-03T05:13:58.498Z,90.45
2018-05-03T05:14:58.495Z,90.59
2018-05-03T05:15:58.498Z,90.17
2018-05-03T05:16:58.529Z,90.26
2018-05-03T05:17:59.363Z,89.88
2018-05-03T05:18:58.524Z,89.88
2018-05-03T05:19:58.500Z,89.78
2018-05-03T05:20:58.507Z,89.31
2018-05-03T05:21:58.499Z,88.83
2018-05-03T05:22:58.543Z,89.02
2018-05-03T05:23:58.514Z,88.64
2018-05-03T05:24:58.508Z,88.16
2018-05-03T05:25:58.535Z,88.64
2018-05-03T05:26:58.548Z,87.78
2018-05-03T05:27:58.514Z,88.45
2018-05-03T05:28:58.517Z,88.16
2018-05-03T05:29:58.519Z,87.87
2018-05-03T05:30:58.531Z,88.26
2018-05-03T05:31:58.534Z,87.40
2018-05-03T05:32:58.551Z,87.02
2018-05-03T05:33:58.524Z,86.10
2018-05-03T05:34:58.526Z,86.73
2018-05-03T05:35:58.552Z,86.92
2018-05-03T05:36:58.530Z,86.68
2018-05-03T05:37:58.538Z,86.68
2018-05-03T05:38:58.539Z,86.58
2018-05-03T05:39:58.545Z,86.39
2018-05-03T05:40:58.539Z,85.53
2018-05-03T05:41:58.535Z,85.72
2018-05-03T05:42:58.539Z,85.53
2018-05-03T05:43:58.540Z,85.05
2018-05-03T05:44:58.544Z,84.77
2018-05-03T05:45:58.544Z,84.29
2018-05-03T05:46:58.596Z,84.96
2018-05-03T05:47:58.580Z,84.33
2018-05-03T05:48:58.721Z,84.14
2018-05-03T05:49:58.601Z,83.95
2018-05-03T05:50:58.568Z,82.81
2018-05-03T05:51:58.565Z,82.32
2018-05-03T05:52:58.563Z,82.52
2018-05-03T05:53:58.575Z,82.94
2018-05-03T05:54:58.571Z,82.18
2018-05-03T05:55:58.575Z,81.85
2018-05-03T05:56:58.565Z,81.89
2018-05-03T05:57:58.576Z,81.60
2018-05-03T05:58:58.575Z,81.32
2018-05-03T05:59:58.572Z,81.22
2018-05-03T06:00:58.577Z,81.09
2018-05-03T06:01:58.585Z,81.03
2018-05-03T06:02:58.584Z,80.88
2018-05-03T06:03:58.588Z,80.69
2018-05-03T06:04:58.576Z,80.65
2018-05-03T06:05:58.592Z,81.03
2018-05-03T06:06:58.601Z,80.93
2018-05-03T06:07:58.586Z,80.46
2018-05-03T06:08:58.591Z,79.60
2018-05-03T06:09:58.596Z,79.69
2018-05-03T06:10:58.622Z,80.27
2018-05-03T06:11:58.595Z,79.35
2018-05-03T06:12:58.607Z,78.87
2018-05-03T06:13:58.604Z,79.16
2018-05-03T06:14:58.611Z,78.78
2018-05-03T06:15:58.612Z,78.01
2018-05-03T06:16:58.643Z,77.28
2018-05-03T06:17:58.619Z,77.38
2018-05-03T06:18:58.622Z,76.46
2018-05-03T06:19:58.647Z,75.54
2018-05-03T06:20:58.642Z,75.79
2018-05-03T06:21:58.623Z,75.12
2018-05-03T06:22:58.621Z,74.26
2018-05-03T06:23:58.638Z,73.54
2018-05-03T06:24:58.646Z,72.80
2018-05-03T06:25:58.690Z,71.50
2018-05-03T06:26:58.662Z,68.30
2018-05-03T06:27:58.643Z,67.00
2018-05-03T06:28:58.635Z,63.60
2018-05-03T06:29:59.365Z,63.25
2018-05-03T06:30:58.648Z,65.23
2018-05-03T06:31:58.650Z,66.55
2018-05-03T06:32:58.658Z,66.89
2018-05-03T06:33:58.656Z,67.28
2018-05-03T06:34:58.666Z,68.30
2018-05-03T06:35:58.662Z,68.24
2018-05-03T06:36:58.659Z,68.27
2018-05-03T06:37:58.754Z,66.74
2018-05-03T06:38:58.681Z,61.23
2018-05-03T06:39:58.707Z,58.70
2018-05-03T06:40:58.753Z,60.75
2018-05-03T06:41:58.826Z,61.65
2018-05-03T06:42:59.363Z,61.65
2018-05-03T06:43:58.699Z,61.30
2018-05-03T06:44:58.768Z,60.31
2018-05-03T06:45:58.708Z,59.76
2018-05-03T06:46:58.713Z,56.52
2018-05-03T06:47:58.704Z,55.76
2018-05-03T06:48:58.817Z,57.10
2018-05-03T06:49:58.734Z,57.68
2018-05-03T06:50:58.716Z,54.82
2018-05-03T06:51:58.991Z,52.63
2018-05-03T06:52:58.846Z,53.05
2018-05-03T06:53:58.736Z,53.35
2018-05-03T06:54:59.372Z,55.33
2018-05-03T06:55:58.729Z,51.72
2018-05-03T06:56:58.769Z,50.37
2018-05-03T06:57:58.748Z,51.55
2018-05-03T06:58:59.143Z,55.73
2018-05-03T06:59:58.763Z,55.15
2018-05-03T07:00:58.917Z,55.41
2018-05-03T07:01:58.765Z,54.93
2018-05-03T07:02:58.976Z,52.51
2018-05-03T07:03:58.916Z,51.09
2018-05-03T07:04:58.953Z,52.12
2018-05-03T07:05:59.384Z,50.83
2018-05-03T07:06:58.976Z,49.48
2018-05-03T07:07:58.795Z,49.12
2018-05-03T07:08:58.792Z,47.67
2018-05-03T07:09:58.817Z,47.41
2018-05-03T07:10:58.810Z,45.43
2018-05-03T07:11:58.937Z,44.20
2018-05-03T07:12:58.834Z,44.73
2018-05-03T07:13:58.957Z,47.17
2018-05-03T07:14:58.843Z,50.18
2018-05-03T07:15:58.843Z,50.47
2018-05-03T07:16:58.852Z,49.73
2018-05-03T07:17:58.861Z,48.13
2018-05-03T07:18:58.944Z,46.81
2018-05-03T07:19:58.882Z,46.03
2018-05-03T07:20:58.977Z,45.31
2018-05-03T07:21:58.895Z,43.85
2018-05-03T07:22:59.180Z,45.01
2018-05-03T07:23:59.390Z,45.76
2018-05-03T07:24:58.916Z,47.53
2018-05-03T07:25:58.915Z,49.19
2018-05-03T07:26:59.891Z,52.15
2018-05-03T07:27:58.934Z,51.57
2018-05-03T07:28:58.973Z,50.78
2018-05-03T07:29:58.953Z,47.77
2018-05-03T07:30:59.895Z,48.06
2018-05-03T07:31:58.964Z,48.52
2018-05-03T07:32:58.983Z,48.61
2018-05-03T07:33:58.981Z,46.40
2018-05-03T07:34:58.991Z,48.49
2018-05-03T07:35:59.030Z,49.43
2018-05-03T07:36:59.897Z,49.37
2018-05-03T07:37:59.044Z,47.63
2018-05-03T07:39:02.409Z,47.75
2018-05-03T07:39:59.050Z,48.40
2018-05-03T07:40:59.063Z,47.80
2018-05-03T07:41:59.041Z,49.60
2018-05-03T07:42:59.162Z,50.93
2018-05-03T07:43:59.154Z,50.73
2018-05-03T07:44:59.190Z,51.64
2018-05-03T07:45:59.100Z,53.28
2018-05-03T07:46:59.097Z,54.08
2018-05-03T07:47:59.122Z,55.30
2018-05-03T07:48:59.172Z,54.53
2018-05-03T07:49:59.904Z,53.40
2018-05-03T07:50:59.141Z,51.67
2018-05-03T07:51:59.149Z,51.60
2018-05-03T07:52:59.184Z,50.63
2018-05-03T07:53:59.654Z,51.50
2018-05-03T07:54:59.281Z,50.93
2018-05-03T07:55:59.172Z,49.77
2018-05-03T07:56:59.178Z,47.19
2018-05-03T07:57:59.229Z,45.55
2018-05-03T07:58:59.273Z,49.05
2018-05-03T07:59:59.207Z,51.89
2018-05-03T08:00:59.225Z,54.24
2018-05-03T08:01:59.235Z,54.24
2018-05-03T08:02:59.240Z,53.96
2018-05-03T08:03:59.246Z,54.79
2018-05-03T08:04:59.911Z,54.72
2018-05-03T08:05:59.273Z,55.27
2018-05-03T08:06:59.299Z,56.14
2018-05-03T08:07:59.296Z,55.94
2018-05-03T08:08:59.300Z,54.34
2018-05-03T08:09:59.307Z,52.61
2018-05-03T08:10:59.429Z,52.15
2018-05-03T08:11:59.319Z,53.11
2018-05-03T08:12:59.324Z,52.66
2018-05-03T08:13:59.341Z,52.27
2018-05-03T08:14:59.364Z,52.56
2018-05-03T08:15:59.380Z,52.75
2018-05-03T08:16:59.429Z,51.82
2018-05-03T08:18:00.536Z,53.09
2018-05-03T08:18:59.396Z,51.10
2018-05-03T08:19:59.399Z,48.28
2018-05-03T08:20:59.412Z,46.08
2018-05-03T08:21:59.523Z,45.14
2018-05-03T08:22:59.423Z,45.26
2018-05-03T08:23:59.449Z,46.76
2018-05-03T08:24:59.428Z,47.94
2018-05-03T08:25:59.454Z,49.27
2018-05-03T08:26:59.572Z,47.58
2018-05-03T08:27:59.488Z,49.68
2018-05-03T08:28:59.481Z,48.93
2018-05-03T08:29:59.511Z,47.41
2018-05-03T08:30:59.560Z,45.81
2018-05-03T08:31:59.501Z,44.38
2018-05-03T08:32:59.523Z,45.67
2018-05-03T08:33:59.545Z,48.08
2018-05-03T08:34:59.539Z,51.50
2018-05-03T08:35:59.607Z,51.34
2018-05-03T08:36:59.587Z,50.69
2018-05-03T08:37:59.632Z,50.49
2018-05-03T08:38:59.685Z,49.39
2018-05-03T08:39:59.598Z,47.38
2018-05-03T08:40:59.606Z,46.44
2018-05-03T08:41:59.649Z,45.57
2018-05-03T08:42:59.612Z,46.37
2018-05-03T08:43:59.643Z,46.27
2018-05-03T08:44:59.644Z,44.82
2018-05-03T08:45:59.733Z,44.46
2018-05-03T08:46:59.720Z,45.00
2018-05-03T08:47:59.670Z,45.89
2018-05-03T08:48:59.730Z,47.44
2018-05-03T08:49:59.756Z,47.63
2018-05-03T08:50:59.724Z,46.13
2018-05-03T08:51:59.804Z,45.33
2018-05-03T08:52:59.772Z,44.48
2018-05-03T08:53:59.760Z,42.57
2018-05-03T08:54:59.779Z,43.51
2018-05-03T08:55:59.916Z,42.87
2018-05-03T08:56:59.874Z,44.76
2018-05-03T08:57:59.808Z,43.66
2018-05-03T08:58:59.818Z,43.06
2018-05-03T08:59:59.841Z,43.74
2018-05-03T09:00:59.879Z,45.43
2018-05-03T09:02:00.278Z,46.03
2018-05-03T09:02:59.887Z,45.96
2018-05-03T09:03:59.922Z,45.76
2018-05-03T09:04:59.895Z,45.09
2018-05-03T09:05:59.959Z,45.21
2018-05-03T09:06:59.963Z,45.14
2018-05-03T09:07:59.948Z,45.89
2018-05-03T09:09:00.453Z,46.44
2018-05-03T09:10:00.011Z,43.78
2018-05-03T09:11:00.019Z,42.99
2018-05-03T09:11:59.991Z,43.35
2018-05-03T09:12:59.998Z,44.18
2018-05-03T09:14:00.027Z,43.58
2018-05-03T09:15:00.048Z,45.36
2018-05-03T09:16:00.680Z,45.68
2018-05-03T09:17:00.481Z,47.97
2018-05-03T09:18:00.439Z,49.41
2018-05-03T09:19:00.124Z,49.34
2018-05-03T09:20:00.964Z,47.31
2018-05-03T09:21:00.128Z,46.86
2018-05-03T09:22:00.187Z,45.36
2018-05-03T09:23:00.156Z,43.18
2018-05-03T09:24:00.168Z,40.77
2018-05-03T09:25:00.176Z,39.39
2018-05-03T09:26:00.222Z,40.19
2018-05-03T09:27:00.284Z,40.94
2018-05-03T09:28:00.235Z,40.19
2018-05-03T09:29:00.232Z,39.94
2018-05-03T09:30:00.331Z,36.41
2018-05-03T09:31:00.409Z,35.05
2018-05-03T09:32:00.326Z,36.78
2018-05-03T09:33:00.330Z,36.86
2018-05-03T09:34:00.292Z,36.66
2018-05-03T09:35:00.365Z,36.98
2018-05-03T09:36:00.387Z,34.69
2018-05-03T09:37:00.403Z,33.17
2018-05-03T09:38:00.360Z,32.86
2018-05-03T09:39:00.365Z,31.21
2018-05-03T09:40:00.374Z,30.45
2018-05-03T09:41:00.400Z,30.13
2018-05-03T09:42:00.399Z,29.63
2018-05-03T09:43:00.440Z,30.94
2018-05-03T09:44:00.430Z,33.26
2018-05-03T09:45:00.983Z,33.18
2018-05-03T09:46:00.481Z,33.18
2018-05-03T09:47:00.616Z,33.65
2018-05-03T09:48:00.654Z,36.52
2018-05-03T09:49:00.544Z,37.27
2018-05-03T09:50:00.582Z,37.29
2018-05-03T09:51:00.594Z,37.17
2018-05-03T09:52:00.654Z,38.02
2018-05-03T09:53:00.625Z,37.19
2018-05-03T09:54:00.782Z,36.00
2018-05-03T09:55:01.485Z,37.35
2018-05-03T09:56:00.641Z,35.63
2018-05-03T09:57:00.644Z,35.63
2018-05-03T09:58:01.490Z,36.71
2018-05-03T09:59:01.691Z,35.86
2018-05-03T10:00:00.735Z,35.12
2018-05-03T10:01:00.706Z,33.94
2018-05-03T10:02:00.717Z,34.39
2018-05-03T10:03:00.756Z,35.26
2018-05-03T10:04:00.769Z,35.18
2018-05-03T10:05:00.784Z,34.33
2018-05-03T10:06:00.773Z,35.26
2018-05-03T10:07:00.815Z,35.94
2018-05-03T10:08:00.876Z,35.45
2018-05-03T10:09:00.893Z,34.70
2018-05-03T10:10:00.904Z,34.31
2018-05-03T10:11:00.869Z,35.14
2018-05-03T10:12:00.909Z,35.55
2018-05-03T10:13:00.883Z,35.06
2018-05-03T10:14:00.938Z,34.38
2018-05-03T10:15:00.951Z,35.14
2018-05-03T10:16:00.937Z,35.37
2018-05-03T10:17:00.974Z,34.73
2018-05-03T10:18:01.105Z,34.87
2018-05-03T10:19:01.011Z,35.13
2018-05-03T10:20:01.030Z,36.90
2018-05-03T10:21:01.024Z,36.11
2018-05-03T10:22:01.106Z,37.31
2018-05-03T10:23:01.041Z,37.33
2018-05-03T10:24:01.053Z,37.52
2018-05-03T10:25:01.071Z,38.76
2018-05-03T10:26:01.097Z,39.54
2018-05-03T10:27:01.126Z,39.45
2018-05-03T10:28:01.125Z,38.49
2018-05-03T10:29:01.134Z,39.04
2018-05-03T10:30:02.191Z,39.82
2018-05-03T10:31:01.160Z,40.01
2018-05-03T10:32:01.169Z,39.14
2018-05-03T10:33:01.246Z,37.91
2018-05-03T10:34:01.211Z,37.25
2018-05-03T10:35:02.008Z,34.87
2018-05-03T10:36:01.311Z,34.16
2018-05-03T10:37:01.266Z,35.13
2018-05-03T10:38:01.299Z,35.55
2018-05-03T10:39:01.279Z,34.66
2018-05-03T10:40:01.678Z,33.14
2018-05-03T10:41:01.353Z,34.66
2018-05-03T10:42:01.441Z,35.36
2018-05-03T10:43:01.323Z,34.41
2018-05-03T10:44:01.355Z,31.07
2018-05-03T10:45:01.356Z,31.25
2018-05-03T10:46:01.382Z,30.94
2018-05-03T10:47:01.436Z,30.86
2018-05-03T10:48:01.408Z,28.91
2018-05-03T10:49:01.516Z,29.39
2018-05-03T10:50:01.424Z,30.46
2018-05-03T10:51:01.473Z,31.98
2018-05-03T10:52:01.456Z,32.34
2018-05-03T10:53:01.455Z,34.94
2018-05-03T10:54:01.479Z,34.64
2018-05-03T10:55:01.498Z,34.38
2018-05-03T10:56:01.678Z,33.68
2018-05-03T10:57:01.561Z,34.26
2018-05-03T10:58:01.536Z,34.47
2018-05-03T10:59:01.538Z,34.44
2018-05-03T11:00:01.558Z,36.15
2018-05-03T11:01:01.563Z,36.54
2018-05-03T11:02:01.584Z,37.21
2018-05-03T11:03:01.596Z,38.08
2018-05-03T11:04:01.608Z,37.10
2018-05-03T11:05:01.615Z,37.72
2018-05-03T11:06:01.627Z,38.59
2018-05-03T11:07:01.639Z,40.34
2018-05-03T11:08:01.655Z,40.36
2018-05-03T11:09:01.666Z,40.36
2018-05-03T11:10:01.669Z,41.14
2018-05-03T11:11:01.861Z,40.95
2018-05-03T11:12:01.724Z,40.66
2018-05-03T11:13:01.747Z,40.66
2018-05-03T11:14:01.714Z,40.55
2018-05-03T11:15:01.718Z,40.16
2018-05-03T11:16:01.736Z,39.76
2018-05-03T11:17:01.745Z,38.70
2018-05-03T11:18:01.751Z,40.14
2018-05-03T11:19:01.761Z,39.86
2018-05-03T11:20:01.771Z,37.93
2018-05-03T11:21:01.772Z,38.53
2018-05-03T11:22:01.840Z,38.24
2018-05-03T11:23:01.823Z,37.45
2018-05-03T11:24:01.860Z,37.27
2018-05-03T11:25:01.827Z,37.27
2018-05-03T11:26:01.909Z,36.21
2018-05-03T11:27:01.823Z,35.64
2018-05-03T11:28:01.882Z,35.36
2018-05-03T11:29:01.834Z,34.59
2018-05-03T11:30:01.861Z,34.58
2018-05-03T11:31:01.897Z,35.91
2018-05-03T11:32:01.878Z,37.95
2018-05-03T11:33:01.895Z,39.01
2018-05-03T11:34:01.947Z,40.26
2018-05-03T11:35:01.934Z,39.68
2018-05-03T11:36:01.965Z,38.91
2018-05-03T11:37:02.025Z,37.85
2018-05-03T11:38:01.900Z,38.26
2018-05-03T11:39:01.914Z,38.43
2018-05-03T11:40:02.008Z,39.79
2018-05-03T11:41:01.950Z,39.87
2018-05-03T11:42:01.957Z,38.43
2018-05-03T11:43:01.942Z,38.26
2018-05-03T11:44:02.551Z,39.99
2018-05-03T11:45:24.144Z,39.78
2018-05-03T11:46:03.048Z,39.09
2018-05-03T11:49:35.200Z,41.32
2018-05-03T11:50:35.120Z,39.97
2018-05-03T11:51:36.071Z,39.64
2018-05-03T11:52:35.157Z,41.55
2018-05-03T11:53:35.350Z,41.55
2018-05-03T11:54:35.168Z,41.06
2018-05-03T11:55:35.341Z,40.70
2018-05-03T11:56:35.144Z,41.64
2018-05-03T11:57:36.071Z,42.70
2018-05-03T11:58:36.072Z,42.82
2018-05-03T11:59:35.244Z,40.80
2018-05-03T12:00:35.187Z,40.70
2018-05-03T12:01:35.222Z,40.80
2018-05-03T12:02:35.211Z,40.51
2018-05-03T12:03:35.450Z,39.45
2018-05-03T12:04:35.267Z,39.93
2018-05-03T12:05:35.226Z,39.91
2018-05-03T12:06:35.220Z,40.39
2018-05-03T12:07:35.256Z,40.58
2018-05-03T12:08:35.352Z,40.66
2018-05-03T12:09:35.323Z,42.20
2018-05-03T12:10:35.290Z,42.49
2018-05-03T12:11:35.295Z,42.30
2018-05-03T12:12:35.286Z,42.68
2018-05-03T12:13:35.297Z,43.28
2018-05-03T12:14:35.275Z,41.74
2018-05-03T12:15:35.292Z,42.14
2018-05-03T12:16:35.415Z,41.51
2018-05-03T12:17:35.311Z,41.32
2018-05-03T12:18:35.315Z,39.87
2018-05-03T12:19:35.299Z,39.39
2018-05-03T12:20:35.309Z,38.53
2018-05-03T12:21:35.311Z,39.49
2018-05-03T12:22:35.353Z,38.53
2018-05-03T12:23:35.338Z,38.33
2018-05-03T12:24:35.356Z,39.18
2018-05-03T12:25:35.408Z,40.80
2018-05-03T12:26:35.409Z,40.63
2018-05-03T12:27:35.336Z,39.66
2018-05-03T12:28:35.394Z,40.26
2018-05-03T12:29:35.396Z,40.64
2018-05-03T12:30:35.389Z,40.55
2018-05-03T12:31:35.387Z,39.78
2018-05-03T12:32:35.411Z,41.66
2018-05-03T12:33:35.520Z,42.24
2018-05-03T12:34:36.364Z,42.03
2018-05-03T12:35:35.393Z,41.24
2018-05-03T12:36:35.412Z,42.20
2018-05-03T12:37:35.431Z,43.45
2018-05-03T12:38:35.447Z,43.43
2018-05-03T12:39:35.432Z,42.85
2018-05-03T12:40:35.443Z,42.37
2018-05-03T12:41:35.432Z,41.79
2018-05-03T12:42:35.434Z,42.00
2018-05-03T12:43:35.462Z,41.72
2018-05-03T12:44:35.502Z,42.10
2018-05-03T12:45:35.442Z,42.39
2018-05-03T12:46:35.512Z,41.82
2018-05-03T12:47:35.454Z,41.53
2018-05-03T12:48:35.461Z,41.72
2018-05-03T12:49:35.589Z,41.33
2018-05-03T12:50:35.492Z,41.26
2018-05-03T12:51:35.517Z,41.06
2018-05-03T12:52:35.523Z,41.53
2018-05-03T12:53:35.511Z,41.53
2018-05-03T12:54:36.365Z,41.05
2018-05-03T12:55:35.577Z,40.66